sensor_id;sensor_type;location;lat;lon;timestamp;pressure;altitude;pressure_sealevel;temperature;humidity
74125;BME280;62475;52.192;5.396;2023-02-02T00:00:08;102040.59;;;7.45;100.00
74125;BME280;62475;52.192;5.396;2023-02-02T00:02:33;102046.06;;;7.45;100.00
74125;BME280;62475;52.192;5.396;2023-02-02T00:04:58;102050.94;;;7.43;100.00
74125;BME280;62475;52.192;5.396;2023-02-02T00:07:24;102040.81;;;7.44;100.00
74125;BME280;62475;52.192;5.396;2023-02-02T00:09:49;102041.06;;;7.42;100.00
74125;BME280;62475;52.192;5.396;2023-02-02T00:12:14;102041.66;;;7.44;100.00
74125;BME280;62475;52.192;5.396;2023-02-02T00:14:39;102044.38;;;7.44;100.00
74125;BME280;62475;52.192;5.396;2023-02-02T00:17:07;102040.47;;;7.40;100.00
74125;BME280;62475;52.192;5.396;2023-02-02T00:19:33;102038.31;;;7.42;100.00
74125;BME280;62475;52.192;5.396;2023-02-02T00:21:58;102046.25;;;7.27;100.00
74125;BME280;62475;52.192;5.396;2023-02-02T00:24:24;102040.97;;;7.37;100.00
74125;BME280;62475;52.192;5.396;2023-02-02T00:26:50;102038.88;;;7.28;100.00
74125;BME280;62475;52.192;5.396;2023-02-02T00:29:20;102035.81;;;7.24;100.00
74125;BME280;62475;52.192;5.396;2023-02-02T00:31:45;102035.44;;;7.21;100.00
74125;BME280;62475;52.192;5.396;2023-02-02T00:34:11;102048.53;;;7.19;100.00
74125;BME280;62475;52.192;5.396;2023-02-02T00:36:36;102037.09;;;7.22;100.00
74125;BME280;62475;52.192;5.396;2023-02-02T00:39:04;102037.44;;;7.25;100.00
74125;BME280;62475;52.192;5.396;2023-02-02T00:41:29;102037.59;;;7.19;100.00
74125;BME280;62475;52.192;5.396;2023-02-02T00:43:55;102041.50;;;7.23;100.00
74125;BME280;62475;52.192;5.396;2023-02-02T00:46:39;102034.63;;;7.20;100.00
74125;BME280;62475;52.192;5.396;2023-02-02T00:49:04;102031.78;;;7.15;100.00
74125;BME280;62475;52.192;5.396;2023-02-02T00:51:30;102039.44;;;7.30;100.00
74125;BME280;62475;52.192;5.396;2023-02-02T00:53:55;102033.16;;;7.29;100.00
74125;BME280;62475;52.192;5.396;2023-02-02T00:56:20;102049.91;;;7.33;100.00
74125;BME280;62475;52.192;5.396;2023-02-02T00:58:46;102028.84;;;7.33;100.00
74125;BME280;62475;52.192;5.396;2023-02-02T01:01:15;102042.56;;;7.22;100.00
74125;BME280;62475;52.192;5.396;2023-02-02T01:03:41;102048.88;;;7.22;100.00
74125;BME280;62475;52.192;5.396;2023-02-02T01:06:06;102048.53;;;7.19;100.00
74125;BME280;62475;52.192;5.396;2023-02-02T01:08:31;102043.22;;;7.12;100.00
74125;BME280;62475;52.192;5.396;2023-02-02T01:10:58;102037.16;;;7.10;100.00
74125;BME280;62475;52.192;5.396;2023-02-02T01:13:23;102046.16;;;7.11;100.00
74125;BME280;62475;52.192;5.396;2023-02-02T01:15:48;102047.25;;;7.10;100.00
74125;BME280;62475;52.192;5.396;2023-02-02T01:18:13;102043.56;;;7.04;100.00
74125;BME280;62475;52.192;5.396;2023-02-02T01:20:38;102060.53;;;7.06;100.00
74125;BME280;62475;52.192;5.396;2023-02-02T01:23:04;102057.56;;;7.08;100.00
74125;BME280;62475;52.192;5.396;2023-02-02T01:25:29;102058.06;;;7.05;100.00
74125;BME280;62475;52.192;5.396;2023-02-02T01:27:56;102057.59;;;6.96;100.00
74125;BME280;62475;52.192;5.396;2023-02-02T01:30:21;102071.16;;;6.91;100.00
74125;BME280;62475;52.192;5.396;2023-02-02T01:32:47;102069.13;;;6.86;100.00
74125;BME280;62475;52.192;5.396;2023-02-02T01:35:12;102057.41;;;6.86;100.00
74125;BME280;62475;52.192;5.396;2023-02-02T01:37:37;102063.56;;;6.81;100.00
74125;BME280;62475;52.192;5.396;2023-02-02T01:40:03;102065.59;;;6.86;100.00
74125;BME280;62475;52.192;5.396;2023-02-02T01:42:28;102065.47;;;6.81;100.00
74125;BME280;62475;52.192;5.396;2023-02-02T01:47:20;102072.25;;;6.67;100.00
74125;BME280;62475;52.192;5.396;2023-02-02T01:49:46;102076.75;;;6.61;100.00
74125;BME280;62475;52.192;5.396;2023-02-02T01:52:12;102078.06;;;6.59;100.00
74125;BME280;62475;52.192;5.396;2023-02-02T01:54:43;102078.88;;;6.59;100.00
74125;BME280;62475;52.192;5.396;2023-02-02T01:57:11;102074.88;;;6.62;100.00
74125;BME280;62475;52.192;5.396;2023-02-02T01:59:37;102064.53;;;6.52;100.00
74125;BME280;62475;52.192;5.396;2023-02-02T02:02:03;102065.25;;;6.59;100.00
74125;BME280;62475;52.192;5.396;2023-02-02T02:04:29;102064.78;;;6.51;100.00
74125;BME280;62475;52.192;5.396;2023-02-02T02:06:58;102071.28;;;6.50;100.00
74125;BME280;62475;52.192;5.396;2023-02-02T02:09:25;102067.63;;;6.44;100.00
74125;BME280;62475;52.192;5.396;2023-02-02T02:11:51;102063.81;;;6.45;100.00
74125;BME280;62475;52.192;5.396;2023-02-02T02:14:17;102069.50;;;6.44;100.00
74125;BME280;62475;52.192;5.396;2023-02-02T02:18:03;102062.16;;;6.44;100.00
74125;BME280;62475;52.192;5.396;2023-02-02T02:22:48;102049.44;;;6.50;100.00
74125;BME280;62475;52.192;5.396;2023-02-02T02:34:02;102052.06;;;6.56;100.00
74125;BME280;62475;52.192;5.396;2023-02-02T02:36:47;102056.44;;;6.57;100.00
74125;BME280;62475;52.192;5.396;2023-02-02T02:41:43;102043.41;;;6.59;100.00
74125;BME280;62475;52.192;5.396;2023-02-02T02:44:10;102040.44;;;6.61;100.00
74125;BME280;62475;52.192;5.396;2023-02-02T02:46:37;102034.97;;;6.61;100.00
74125;BME280;62475;52.192;5.396;2023-02-02T02:49:03;102036.16;;;6.65;100.00
74125;BME280;62475;52.192;5.396;2023-02-02T02:51:47;102036.75;;;6.67;100.00
74125;BME280;62475;52.192;5.396;2023-02-02T02:59:41;102031.75;;;6.64;100.00
74125;BME280;62475;52.192;5.396;2023-02-02T03:02:23;102031.06;;;6.68;100.00
74125;BME280;62475;52.192;5.396;2023-02-02T03:07:22;102039.47;;;6.78;100.00
74125;BME280;62475;52.192;5.396;2023-02-02T03:09:50;102039.31;;;6.85;100.00
74125;BME280;62475;52.192;5.396;2023-02-02T03:12:16;102049.19;;;6.86;100.00
74125;BME280;62475;52.192;5.396;2023-02-02T03:14:43;102033.97;;;6.90;100.00
74125;BME280;62475;52.192;5.396;2023-02-02T03:17:08;102049.75;;;7.00;100.00
74125;BME280;62475;52.192;5.396;2023-02-02T03:19:33;102056.06;;;7.00;100.00
74125;BME280;62475;52.192;5.396;2023-02-02T03:21:59;102054.72;;;7.03;100.00
74125;BME280;62475;52.192;5.396;2023-02-02T03:24:24;102057.66;;;7.13;100.00
74125;BME280;62475;52.192;5.396;2023-02-02T03:26:49;102055.19;;;7.11;100.00
74125;BME280;62475;52.192;5.396;2023-02-02T03:29:15;102055.28;;;7.16;100.00
74125;BME280;62475;52.192;5.396;2023-02-02T03:31:40;102060.75;;;7.16;100.00
74125;BME280;62475;52.192;5.396;2023-02-02T03:34:06;102063.25;;;7.18;100.00
74125;BME280;62475;52.192;5.396;2023-02-02T03:36:31;102061.09;;;7.20;100.00
74125;BME280;62475;52.192;5.396;2023-02-02T03:38:56;102055.63;;;7.20;100.00
74125;BME280;62475;52.192;5.396;2023-02-02T03:41:21;102057.31;;;7.21;100.00
74125;BME280;62475;52.192;5.396;2023-02-02T03:43:47;102060.84;;;7.21;100.00
74125;BME280;62475;52.192;5.396;2023-02-02T03:46:12;102059.91;;;7.27;100.00
74125;BME280;62475;52.192;5.396;2023-02-02T03:48:37;102058.34;;;7.31;100.00
74125;BME280;62475;52.192;5.396;2023-02-02T03:51:09;102060.34;;;7.36;100.00
74125;BME280;62475;52.192;5.396;2023-02-02T03:53:35;102060.09;;;7.37;100.00
74125;BME280;62475;52.192;5.396;2023-02-02T03:56:00;102055.81;;;7.41;100.00
74125;BME280;62475;52.192;5.396;2023-02-02T03:58:26;102046.78;;;7.41;100.00
74125;BME280;62475;52.192;5.396;2023-02-02T04:00:51;102045.94;;;7.40;100.00
74125;BME280;62475;52.192;5.396;2023-02-02T04:03:19;102045.84;;;7.35;100.00
74125;BME280;62475;52.192;5.396;2023-02-02T04:05:47;102040.47;;;7.40;100.00
74125;BME280;62475;52.192;5.396;2023-02-02T04:08:12;102054.72;;;7.42;100.00
74125;BME280;62475;52.192;5.396;2023-02-02T04:10:38;102049.75;;;7.39;100.00
74125;BME280;62475;52.192;5.396;2023-02-02T04:13:06;102050.84;;;7.38;100.00
74125;BME280;62475;52.192;5.396;2023-02-02T04:15:31;102058.78;;;7.40;100.00
74125;BME280;62475;52.192;5.396;2023-02-02T04:17:57;102048.91;;;7.39;100.00
74125;BME280;62475;52.192;5.396;2023-02-02T04:20:22;102033.84;;;7.36;100.00
74125;BME280;62475;52.192;5.396;2023-02-02T04:22:47;102031.22;;;7.41;100.00
74125;BME280;62475;52.192;5.396;2023-02-02T04:25:12;102033.09;;;7.41;100.00
74125;BME280;62475;52.192;5.396;2023-02-02T04:27:38;102033.09;;;7.41;100.00
74125;BME280;62475;52.192;5.396;2023-02-02T04:30:03;102039.75;;;7.45;100.00
74125;BME280;62475;52.192;5.396;2023-02-02T04:32:29;102043.78;;;7.42;100.00
74125;BME280;62475;52.192;5.396;2023-02-02T04:34:54;102052.59;;;7.44;100.00
74125;BME280;62475;52.192;5.396;2023-02-02T04:37:20;102051.28;;;7.47;100.00
74125;BME280;62475;52.192;5.396;2023-02-02T04:39:46;101984.66;;;7.08;100.00
74125;BME280;62475;52.192;5.396;2023-02-02T04:42:12;102066.69;;;7.53;100.00
74125;BME280;62475;52.192;5.396;2023-02-02T04:44:37;102059.69;;;7.57;100.00
74125;BME280;62475;52.192;5.396;2023-02-02T04:47:02;102059.91;;;7.55;100.00
74125;BME280;62475;52.192;5.396;2023-02-02T04:49:27;102070.84;;;7.55;100.00
74125;BME280;62475;52.192;5.396;2023-02-02T04:51:52;102074.75;;;7.59;100.00
74125;BME280;62475;52.192;5.396;2023-02-02T04:54:18;102085.31;;;7.67;100.00
74125;BME280;62475;52.192;5.396;2023-02-02T04:56:43;102073.53;;;7.67;100.00
74125;BME280;62475;52.192;5.396;2023-02-02T04:59:08;102060.69;;;7.67;100.00
74125;BME280;62475;52.192;5.396;2023-02-02T05:01:34;102066.06;;;7.62;100.00
74125;BME280;62475;52.192;5.396;2023-02-02T05:03:59;102069.88;;;7.61;100.00
74125;BME280;62475;52.192;5.396;2023-02-02T05:06:24;102072.59;;;7.61;100.00
74125;BME280;62475;52.192;5.396;2023-02-02T05:08:53;102081.63;;;7.62;100.00
74125;BME280;62475;52.192;5.396;2023-02-02T05:11:19;102080.81;;;7.61;100.00
74125;BME280;62475;52.192;5.396;2023-02-02T05:13:49;102085.81;;;7.64;100.00
74125;BME280;62475;52.192;5.396;2023-02-02T05:16:14;102072.69;;;7.66;100.00
74125;BME280;62475;52.192;5.396;2023-02-02T05:18:40;102066.06;;;7.62;100.00
74125;BME280;62475;52.192;5.396;2023-02-02T05:21:05;102052.16;;;7.64;100.00
74125;BME280;62475;52.192;5.396;2023-02-02T05:23:30;102053.00;;;7.64;100.00
74125;BME280;62475;52.192;5.396;2023-02-02T05:25:55;102061.75;;;7.66;100.00
74125;BME280;62475;52.192;5.396;2023-02-02T05:28:21;102079.50;;;7.64;100.00
74125;BME280;62475;52.192;5.396;2023-02-02T05:30:47;102080.00;;;7.61;100.00
74125;BME280;62475;52.192;5.396;2023-02-02T05:33:14;102074.53;;;7.61;100.00
74125;BME280;62475;52.192;5.396;2023-02-02T05:35:39;102069.88;;;7.61;100.00
74125;BME280;62475;52.192;5.396;2023-02-02T05:38:06;102073.69;;;7.60;100.00
74125;BME280;62475;52.192;5.396;2023-02-02T05:40:31;102080.34;;;7.64;100.00
74125;BME280;62475;52.192;5.396;2023-02-02T05:42:56;102074.28;;;7.62;100.00
74125;BME280;62475;52.192;5.396;2023-02-02T05:45:21;102078.06;;;7.61;100.00
74125;BME280;62475;52.192;5.396;2023-02-02T05:47:47;102081.63;;;7.62;100.00
74125;BME280;62475;52.192;5.396;2023-02-02T05:50:12;102081.63;;;7.62;100.00
74125;BME280;62475;52.192;5.396;2023-02-02T05:52:37;102071.44;;;7.57;100.00
74125;BME280;62475;52.192;5.396;2023-02-02T05:55:04;102083.19;;;7.58;100.00
74125;BME280;62475;52.192;5.396;2023-02-02T05:57:29;102083.44;;;7.56;100.00
74125;BME280;62475;52.192;5.396;2023-02-02T05:59:54;102080.59;;;7.51;100.00
74125;BME280;62475;52.192;5.396;2023-02-02T06:02:20;102092.03;;;7.48;100.00
74125;BME280;62475;52.192;5.396;2023-02-02T06:04:45;102089.56;;;7.47;100.00
74125;BME280;62475;52.192;5.396;2023-02-02T06:07:10;102087.06;;;7.45;100.00
74125;BME280;62475;52.192;5.396;2023-02-02T06:09:36;102090.84;;;7.44;100.00
74125;BME280;62475;52.192;5.396;2023-02-02T06:12:01;102091.09;;;7.43;100.00
74125;BME280;62475;52.192;5.396;2023-02-02T06:14:26;102091.09;;;7.43;100.00
74125;BME280;62475;52.192;5.396;2023-02-02T06:16:52;102093.50;;;7.39;100.00
74125;BME280;62475;52.192;5.396;2023-02-02T06:19:17;102091.84;;;7.38;100.00
74125;BME280;62475;52.192;5.396;2023-02-02T06:21:43;102091.59;;;7.40;100.00
74125;BME280;62475;52.192;5.396;2023-02-02T06:24:08;102099.78;;;7.40;100.00
74125;BME280;62475;52.192;5.396;2023-02-02T06:26:33;102094.56;;;7.38;100.00
74125;BME280;62475;52.192;5.396;2023-02-02T06:28:58;102104.91;;;7.36;100.00
74125;BME280;62475;52.192;5.396;2023-02-02T06:31:24;102106.31;;;7.39;100.00
74125;BME280;62475;52.192;5.396;2023-02-02T06:33:53;102107.66;;;7.36;100.00
74125;BME280;62475;52.192;5.396;2023-02-02T06:36:18;102106.81;;;7.36;100.00
74125;BME280;62475;52.192;5.396;2023-02-02T06:38:47;102111.19;;;7.37;100.00
74125;BME280;62475;52.192;5.396;2023-02-02T06:41:12;102115.25;;;7.34;100.00
74125;BME280;62475;52.192;5.396;2023-02-02T06:43:37;102116.81;;;7.30;100.00
74125;BME280;62475;52.192;5.396;2023-02-02T06:46:03;102121.78;;;7.33;100.00
74125;BME280;62475;52.192;5.396;2023-02-02T06:48:28;102123.94;;;7.31;100.00
74125;BME280;62475;52.192;5.396;2023-02-02T06:50:56;102131.06;;;7.32;100.00
74125;BME280;62475;52.192;5.396;2023-02-02T06:53:24;102134.75;;;7.38;100.00
74125;BME280;62475;52.192;5.396;2023-02-02T06:55:57;102136.88;;;7.36;100.00
74125;BME280;62475;52.192;5.396;2023-02-02T06:58:22;102134.13;;;7.36;100.00
74125;BME280;62475;52.192;5.396;2023-02-02T07:00:48;102141.50;;;7.35;100.00
74125;BME280;62475;52.192;5.396;2023-02-02T07:03:14;102118.00;;;7.34;100.00
74125;BME280;62475;52.192;5.396;2023-02-02T07:05:39;102131.66;;;7.34;100.00
74125;BME280;62475;52.192;5.396;2023-02-02T07:08:05;102126.19;;;7.34;100.00
74125;BME280;62475;52.192;5.396;2023-02-02T07:10:32;102124.28;;;7.35;100.00
74125;BME280;62475;52.192;5.396;2023-02-02T07:12:58;102123.69;;;7.33;100.00
74125;BME280;62475;52.192;5.396;2023-02-02T07:15:23;102133.53;;;7.34;100.00
74125;BME280;62475;52.192;5.396;2023-02-02T07:17:48;102127.50;;;7.32;100.00
74125;BME280;62475;52.192;5.396;2023-02-02T07:20:13;102131.06;;;7.32;100.00
74125;BME280;62475;52.192;5.396;2023-02-02T07:22:39;102137.00;;;7.29;100.00
74125;BME280;62475;52.192;5.396;2023-02-02T07:25:05;102134.03;;;7.31;100.00
74125;BME280;62475;52.192;5.396;2023-02-02T07:27:30;102135.69;;;7.32;100.00
74125;BME280;62475;52.192;5.396;2023-02-02T07:29:57;102145.22;;;7.29;100.00
74125;BME280;62475;52.192;5.396;2023-02-02T07:32:22;102151.28;;;7.31;100.00
74125;BME280;62475;52.192;5.396;2023-02-02T07:34:47;102148.75;;;7.30;100.00
74125;BME280;62475;52.192;5.396;2023-02-02T07:37:12;102153.16;;;7.31;100.00
74125;BME280;62475;52.192;5.396;2023-02-02T07:39:37;102157.91;;;7.35;100.00
74125;BME280;62475;52.192;5.396;2023-02-02T07:42:04;102160.38;;;7.37;100.00
74125;BME280;62475;52.192;5.396;2023-02-02T07:44:29;102159.69;;;7.41;100.00
74125;BME280;62475;52.192;5.396;2023-02-02T07:46:55;102153.13;;;7.42;100.00
74125;BME280;62475;52.192;5.396;2023-02-02T07:49:20;102160.03;;;7.45;100.00
74125;BME280;62475;52.192;5.396;2023-02-02T07:51:45;102161.44;;;7.47;100.00
74125;BME280;62475;52.192;5.396;2023-02-02T07:54:13;102164.16;;;7.47;100.00
74125;BME280;62475;52.192;5.396;2023-02-02T07:56:42;102165.84;;;7.48;100.00
74125;BME280;62475;52.192;5.396;2023-02-02T07:59:08;102169.19;;;7.50;100.00
74125;BME280;62475;52.192;5.396;2023-02-02T08:01:34;102169.75;;;7.52;100.00
74125;BME280;62475;52.192;5.396;2023-02-02T08:03:59;102179.03;;;7.51;100.00
74125;BME280;62475;52.192;5.396;2023-02-02T08:06:32;102179.63;;;7.53;100.00
74125;BME280;62475;52.192;5.396;2023-02-02T08:08:58;102181.88;;;7.56;100.00
74125;BME280;62475;52.192;5.396;2023-02-02T08:11:27;102174.00;;;7.60;100.00
74125;BME280;62475;52.192;5.396;2023-02-02T08:13:53;102182.72;;;7.57;100.00
74125;BME280;62475;52.192;5.396;2023-02-02T08:16:19;102183.91;;;7.61;100.00
74125;BME280;62475;52.192;5.396;2023-02-02T08:18:45;102186.38;;;7.62;100.00
74125;BME280;62475;52.192;5.396;2023-02-02T08:21:10;102189.72;;;7.64;100.00
74125;BME280;62475;52.192;5.396;2023-02-02T08:23:36;102195.66;;;7.61;100.00
74125;BME280;62475;52.192;5.396;2023-02-02T08:26:09;102202.44;;;7.59;100.00
74125;BME280;62475;52.192;5.396;2023-02-02T08:28:34;102201.94;;;7.62;100.00
74125;BME280;62475;52.192;5.396;2023-02-02T08:32:01;102206.13;;;7.64;100.00
74125;BME280;62475;52.192;5.396;2023-02-02T08:33:55;102201.22;;;7.66;100.00
74125;BME280;62475;52.192;5.396;2023-02-02T08:36:22;102217.97;;;7.70;100.00
74125;BME280;62475;52.192;5.396;2023-02-02T08:38:51;102217.75;;;7.71;100.00
74125;BME280;62475;52.192;5.396;2023-02-02T08:41:18;102212.84;;;7.73;100.00
74125;BME280;62475;52.192;5.396;2023-02-02T08:43:44;102216.78;;;7.77;100.00
74125;BME280;62475;52.192;5.396;2023-02-02T08:46:10;102224.16;;;7.77;100.00
74125;BME280;62475;52.192;5.396;2023-02-02T08:48:36;102225.81;;;7.78;100.00
74125;BME280;62475;52.192;5.396;2023-02-02T08:51:02;102227.22;;;7.80;100.00
74125;BME280;62475;52.192;5.396;2023-02-02T08:53:27;102232.25;;;7.83;100.00
74125;BME280;62475;52.192;5.396;2023-02-02T08:56:05;102233.41;;;7.87;100.00
74125;BME280;62475;52.192;5.396;2023-02-02T08:58:31;102234.81;;;7.90;100.00
74125;BME280;62475;52.192;5.396;2023-02-02T09:03:52;102241.69;;;7.92;100.00
74125;BME280;62475;52.192;5.396;2023-02-02T09:06:18;102245.03;;;7.94;100.00
74125;BME280;62475;52.192;5.396;2023-02-02T09:08:44;102244.19;;;7.94;100.00
74125;BME280;62475;52.192;5.396;2023-02-02T09:11:13;102239.91;;;7.98;100.00
74125;BME280;62475;52.192;5.396;2023-02-02T09:13:40;102251.78;;;8.03;100.00
74125;BME280;62475;52.192;5.396;2023-02-02T09:16:06;102255.63;;;8.02;100.00
74125;BME280;62475;52.192;5.396;2023-02-02T09:18:32;102263.56;;;8.04;100.00
74125;BME280;62475;52.192;5.396;2023-02-02T09:21:01;102267.13;;;8.04;100.00
74125;BME280;62475;52.192;5.396;2023-02-02T09:23:30;102273.28;;;8.12;100.00
74125;BME280;62475;52.192;5.396;2023-02-02T09:25:56;102272.72;;;8.10;100.00
74125;BME280;62475;52.192;5.396;2023-02-02T09:28:21;102283.78;;;8.15;100.00
74125;BME280;62475;52.192;5.396;2023-02-02T09:30:46;102286.50;;;8.15;100.00
74125;BME280;62475;52.192;5.396;2023-02-02T09:33:11;102284.81;;;8.14;100.00
74125;BME280;62475;52.192;5.396;2023-02-02T09:35:36;102284.25;;;8.12;100.00
74125;BME280;62475;52.192;5.396;2023-02-02T09:38:02;102283.06;;;8.07;100.00
74125;BME280;62475;52.192;5.396;2023-02-02T09:40:27;102286.06;;;8.06;100.00
74125;BME280;62475;52.192;5.396;2023-02-02T09:45:33;102285.31;;;8.11;100.00
74125;BME280;62475;52.192;5.396;2023-02-02T09:48:06;102289.72;;;8.12;100.00
74125;BME280;62475;52.192;5.396;2023-02-02T09:55:40;102294.47;;;8.16;100.00
74125;BME280;62475;52.192;5.396;2023-02-02T10:00:56;102296.47;;;8.21;100.00
74125;BME280;62475;52.192;5.396;2023-02-02T10:03:26;102302.53;;;8.23;100.00
74125;BME280;62475;52.192;5.396;2023-02-02T10:06:00;102311.38;;;8.25;100.00
74125;BME280;62475;52.192;5.396;2023-02-02T10:08:47;102300.88;;;8.22;100.00
74125;BME280;62475;52.192;5.396;2023-02-02T10:11:28;102309.22;;;8.27;100.00
74125;BME280;62475;52.192;5.396;2023-02-02T10:13:55;102307.66;;;8.19;100.00
74125;BME280;62475;52.192;5.396;2023-02-02T10:16:24;102304.94;;;8.19;100.00
74125;BME280;62475;52.192;5.396;2023-02-02T10:21:18;102322.91;;;8.15;100.00
74125;BME280;62475;52.192;5.396;2023-02-02T10:23:45;102328.38;;;8.15;100.00
74125;BME280;62475;52.192;5.396;2023-02-02T10:33:54;102331.69;;;8.17;100.00
74125;BME280;62475;52.192;5.396;2023-02-02T10:37:25;102336.13;;;8.18;100.00
74125;BME280;62475;52.192;5.396;2023-02-02T10:39:33;102333.94;;;8.20;100.00
74125;BME280;62475;52.192;5.396;2023-02-02T10:44:35;102336.59;;;8.15;100.00
74125;BME280;62475;52.192;5.396;2023-02-02T10:47:03;102341.34;;;8.20;100.00
74125;BME280;62475;52.192;5.396;2023-02-02T10:49:32;102339.41;;;8.20;100.00
74125;BME280;62475;52.192;5.396;2023-02-02T10:52:00;102335.38;;;8.23;100.00
74125;BME280;62475;52.192;5.396;2023-02-02T10:54:43;102337.75;;;8.31;100.00
74125;BME280;62475;52.192;5.396;2023-02-02T10:57:11;102342.19;;;8.32;100.00
74125;BME280;62475;52.192;5.396;2023-02-02T10:59:41;102335.72;;;8.38;100.00
74125;BME280;62475;52.192;5.396;2023-02-02T11:02:11;102339.31;;;8.38;100.00
74125;BME280;62475;52.192;5.396;2023-02-02T11:04:36;102341.78;;;8.40;100.00
74125;BME280;62475;52.192;5.396;2023-02-02T11:07:20;102336.22;;;8.35;100.00
74125;BME280;62475;52.192;5.396;2023-02-02T11:09:45;102335.97;;;8.36;100.00
74125;BME280;62475;52.192;5.396;2023-02-02T11:14:46;102337.75;;;8.31;100.00
74125;BME280;62475;52.192;5.396;2023-02-02T11:17:17;102334.81;;;8.32;100.00
74125;BME280;62475;52.192;5.396;2023-02-02T11:19:43;102330.50;;;8.36;100.00
74125;BME280;62475;52.192;5.396;2023-02-02T11:22:22;102334.56;;;8.34;100.00
74125;BME280;62475;52.192;5.396;2023-02-02T11:24:47;102331.47;;;8.30;100.00
74125;BME280;62475;52.192;5.396;2023-02-02T11:29:43;102332.06;;;8.32;100.00
74125;BME280;62475;52.192;5.396;2023-02-02T11:32:24;102332.19;;;8.37;100.00
74125;BME280;62475;52.192;5.396;2023-02-02T11:37:28;102337.00;;;8.47;100.00
74125;BME280;62475;52.192;5.396;2023-02-02T11:39:54;102343.81;;;8.44;100.00
74125;BME280;62475;52.192;5.396;2023-02-02T11:42:20;102345.22;;;8.47;100.00
74125;BME280;62475;52.192;5.396;2023-02-02T11:44:47;102328.44;;;8.43;100.00
74125;BME280;62475;52.192;5.396;2023-02-02T11:47:18;102336.28;;;8.51;100.00
74125;BME280;62475;52.192;5.396;2023-02-02T11:49:44;102337.09;;;8.52;100.00
74125;BME280;62475;52.192;5.396;2023-02-02T11:52:17;102341.28;;;8.54;100.00
74125;BME280;62475;52.192;5.396;2023-02-02T11:54:47;102331.88;;;8.50;100.00
74125;BME280;62475;52.192;5.396;2023-02-02T11:57:15;102331.63;;;8.52;100.00
74125;BME280;62475;52.192;5.396;2023-02-02T11:59:42;102322.81;;;8.50;100.00
74125;BME280;62475;52.192;5.396;2023-02-02T12:04:53;102334.63;;;8.50;100.00
74125;BME280;62475;52.192;5.396;2023-02-02T12:07:26;102336.63;;;8.55;100.00
74125;BME280;62475;52.192;5.396;2023-02-02T12:09:52;102336.16;;;8.46;100.00
74125;BME280;62475;52.192;5.396;2023-02-02T12:15:02;102339.75;;;8.47;100.00
74125;BME280;62475;52.192;5.396;2023-02-02T12:17:41;102328.69;;;8.42;100.00
74125;BME280;62475;52.192;5.396;2023-02-02T12:27:49;102323.13;;;8.37;100.00
74125;BME280;62475;52.192;5.396;2023-02-02T12:30:30;102325.38;;;8.40;100.00
74125;BME280;62475;52.192;5.396;2023-02-02T12:33:09;102319.63;;;8.41;100.00
74125;BME280;62475;52.192;5.396;2023-02-02T12:43:39;102316.22;;;8.34;100.00
74125;BME280;62475;52.192;5.396;2023-02-02T12:46:11;102317.28;;;8.33;100.00
74125;BME280;62475;52.192;5.396;2023-02-02T12:56:35;102317.06;;;8.35;100.00
74125;BME280;62475;52.192;5.396;2023-02-02T12:59:07;102311.56;;;8.35;100.00
74125;BME280;62475;52.192;5.396;2023-02-02T13:09:24;102308.75;;;8.30;100.00
74125;BME280;62475;52.192;5.396;2023-02-02T13:11:52;102303.00;;;8.31;100.00
74125;BME280;62475;52.192;5.396;2023-02-02T13:16:52;102304.56;;;8.27;100.00
74125;BME280;62475;52.192;5.396;2023-02-02T13:19:34;102312.78;;;8.27;100.00
74125;BME280;62475;52.192;5.396;2023-02-02T13:22:03;102317.44;;;8.27;100.00
74125;BME280;62475;52.192;5.396;2023-02-02T13:24:32;102312.31;;;8.19;100.00
74125;BME280;62475;52.192;5.396;2023-02-02T13:26:58;102322.91;;;8.15;100.00
74125;BME280;62475;52.192;5.396;2023-02-02T13:31:58;102317.72;;;8.02;100.00
74125;BME280;62475;52.192;5.396;2023-02-02T13:34:26;102321.28;;;8.02;100.00
74125;BME280;62475;52.192;5.396;2023-02-02T13:36:53;102326.63;;;7.97;100.00
74125;BME280;62475;52.192;5.396;2023-02-02T13:39:31;102326.16;;;7.89;100.00
74125;BME280;62475;52.192;5.396;2023-02-02T13:41:57;102332.72;;;7.88;100.00
74125;BME280;62475;52.192;5.396;2023-02-02T13:44:24;102330.56;;;7.90;100.00
74125;BME280;62475;52.192;5.396;2023-02-02T13:46:58;102334.00;;;7.85;100.00
74125;BME280;62475;52.192;5.396;2023-02-02T13:49:34;102327.13;;;7.83;100.00
74125;BME280;62475;52.192;5.396;2023-02-02T13:59:54;102320.81;;;7.82;100.00
74125;BME280;62475;52.192;5.396;2023-02-02T14:04:59;102318.94;;;7.83;100.00
74125;BME280;62475;52.192;5.396;2023-02-02T14:07:27;102316.09;;;7.78;100.00
74125;BME280;62475;52.192;5.396;2023-02-02T14:09:52;102319.16;;;7.81;100.00
74125;BME280;62475;52.192;5.396;2023-02-02T14:12:20;102321.91;;;7.81;100.00
74125;BME280;62475;52.192;5.396;2023-02-02T14:14:50;102322.97;;;7.80;100.00
74125;BME280;62475;52.192;5.396;2023-02-02T14:19:57;102321.41;;;7.84;100.00
74125;BME280;62475;52.192;5.396;2023-02-02T14:22:39;102321.91;;;7.81;100.00
74125;BME280;62475;52.192;5.396;2023-02-02T14:27:58;102331.16;;;7.80;100.00
74125;BME280;62475;52.192;5.396;2023-02-02T14:30:26;102335.59;;;7.81;100.00
74125;BME280;62475;52.192;5.396;2023-02-02T14:32:52;102328.44;;;7.80;100.00
74125;BME280;62475;52.192;5.396;2023-02-02T14:37:57;102334.75;;;7.81;100.00
74125;BME280;62475;52.192;5.396;2023-02-02T14:40:47;102331.16;;;7.80;100.00
74125;BME280;62475;52.192;5.396;2023-02-02T14:43:26;102332.59;;;7.83;100.00
74125;BME280;62475;52.192;5.396;2023-02-02T14:46:23;102344.25;;;7.78;100.00
74125;BME280;62475;52.192;5.396;2023-02-02T14:51:19;102340.69;;;7.78;100.00
74125;BME280;62475;52.192;5.396;2023-02-02T14:53:49;102344.50;;;7.77;100.00